createdAt,value
2023-04-29T00:02:05.553Z,12.70
2023-04-29T00:04:32.551Z,12.70
2023-04-29T00:07:02.243Z,12.70
2023-04-29T00:09:29.215Z,12.80
2023-04-29T00:11:56.266Z,12.80
2023-04-29T00:14:26.937Z,12.70
2023-04-29T00:16:53.900Z,12.70
2023-04-29T00:19:20.803Z,12.70
2023-04-29T00:21:47.707Z,12.70
2023-04-29T00:24:14.671Z,12.60
2023-04-29T00:26:45.858Z,12.60
2023-04-29T00:29:12.758Z,12.60
2023-04-29T00:31:42.725Z,12.60
2023-04-29T00:34:12.079Z,12.60
2023-04-29T00:36:38.903Z,12.70
2023-04-29T00:39:08.706Z,12.60
2023-04-29T00:41:36.175Z,12.60
2023-04-29T00:44:03.119Z,12.60
2023-04-29T00:46:29.928Z,12.70
2023-04-29T00:48:57.037Z,12.70
2023-04-29T00:51:24.513Z,12.70
2023-04-29T00:53:51.496Z,12.60
2023-04-29T00:56:20.946Z,12.70
2023-04-29T00:58:52.551Z,12.70
2023-04-29T01:01:20.256Z,12.70
2023-04-29T01:03:47.561Z,12.70
2023-04-29T01:06:49.631Z,12.70
2023-04-29T01:09:41.364Z,12.70
2023-04-29T01:12:19.699Z,12.70
2023-04-29T01:15:26.187Z,12.60
2023-04-29T01:18:18.588Z,12.40
2023-04-29T01:20:46.772Z,12.30
2023-04-29T01:23:13.627Z,12.30
2023-04-29T01:25:41.492Z,12.30
2023-04-29T01:28:49.130Z,12.30
2023-04-29T01:31:20.294Z,12.30
2023-04-29T01:34:11.761Z,12.30
2023-04-29T01:37:04.874Z,12.30
2023-04-29T01:40:11.704Z,12.20
2023-04-29T01:42:51.568Z,12.20
2023-04-29T01:45:21.699Z,12.10
2023-04-29T01:47:50.932Z,12.10
2023-04-29T01:50:17.970Z,12.00
2023-04-29T01:52:47.125Z,12.00
2023-04-29T01:55:14.050Z,12.00
2023-04-29T01:57:48.960Z,12.00
2023-04-29T02:00:50.577Z,12.00
2023-04-29T02:03:20.553Z,12.00
2023-04-29T02:05:54.651Z,11.90
2023-04-29T02:08:21.712Z,11.90
2023-04-29T02:10:53.406Z,11.90
2023-04-29T02:13:47.280Z,11.90
2023-04-29T02:16:16.413Z,11.90
2023-04-29T02:18:53.442Z,11.90
2023-04-29T02:21:27.284Z,11.90
2023-04-29T02:23:59.178Z,11.90
2023-04-29T02:26:28.377Z,11.90
2023-04-29T02:28:57.414Z,11.90
2023-04-29T02:31:24.521Z,11.80
2023-04-29T02:33:54.230Z,11.80
2023-04-29T02:36:21.253Z,11.80
2023-04-29T02:38:50.857Z,11.80
2023-04-29T02:41:18.234Z,11.80
2023-04-29T02:43:49.182Z,11.80
2023-04-29T02:46:21.147Z,11.80
2023-04-29T02:48:48.135Z,11.80
2023-04-29T02:51:16.309Z,11.90
2023-04-29T02:53:43.890Z,11.90
2023-04-29T02:56:11.615Z,11.90
2023-04-29T02:58:43.541Z,11.90
2023-04-29T03:01:10.836Z,11.90
2023-04-29T03:03:37.853Z,11.90
2023-04-29T03:06:04.939Z,11.90
2023-04-29T03:08:36.465Z,11.90
2023-04-29T03:11:08.116Z,12.00
2023-04-29T03:13:35.624Z,12.00
2023-04-29T03:16:06.726Z,12.00
2023-04-29T03:18:33.586Z,12.00
2023-04-29T03:21:00.469Z,11.90
2023-04-29T03:23:28.019Z,11.90
2023-04-29T03:25:57.515Z,12.00
2023-04-29T03:28:25.452Z,12.00
2023-04-29T03:30:52.612Z,12.00
2023-04-29T03:33:22.084Z,12.00
2023-04-29T03:35:54.413Z,12.00
2023-04-29T03:38:31.230Z,12.00
2023-04-29T03:40:58.096Z,12.00
2023-04-29T03:43:27.136Z,12.10
2023-04-29T03:45:54.279Z,12.10
2023-04-29T03:48:23.349Z,12.00
2023-04-29T03:50:54.572Z,12.10
2023-04-29T03:53:22.312Z,12.10
2023-04-29T03:55:51.552Z,12.10
2023-04-29T03:58:18.630Z,12.10
2023-04-29T04:00:46.013Z,12.10
2023-04-29T04:03:22.754Z,12.10
2023-04-29T04:05:49.910Z,12.20
2023-04-29T04:08:17.059Z,12.20
2023-04-29T04:11:08.525Z,12.20
2023-04-29T04:13:37.916Z,12.20
2023-04-29T04:16:05.601Z,12.20
2023-04-29T04:18:32.761Z,12.20
2023-04-29T04:21:14.070Z,12.20
2023-04-29T04:23:47.847Z,12.20
2023-04-29T04:26:20.561Z,12.30
2023-04-29T04:28:56.099Z,12.30
2023-04-29T04:31:36.939Z,12.30
2023-04-29T04:34:04.032Z,12.30
2023-04-29T04:36:35.540Z,12.30
2023-04-29T04:39:04.708Z,12.30
2023-04-29T04:41:32.789Z,12.30
2023-04-29T04:44:03.050Z,12.30
2023-04-29T04:46:55.074Z,12.30
2023-04-29T04:49:37.853Z,12.30
2023-04-29T04:52:07.623Z,12.30
2023-04-29T04:54:38.328Z,12.30
2023-04-29T04:57:16.486Z,12.30
2023-04-29T04:59:44.790Z,12.30
2023-04-29T05:02:11.733Z,12.30
2023-04-29T05:04:38.652Z,12.30
2023-04-29T05:07:08.062Z,12.30
2023-04-29T05:09:54.201Z,12.30
2023-04-29T05:12:30.509Z,12.30
2023-04-29T05:15:01.097Z,12.30
2023-04-29T05:17:31.996Z,12.30
2023-04-29T05:19:59.426Z,12.40
2023-04-29T05:22:34.453Z,12.40
2023-04-29T05:25:03.737Z,12.40
2023-04-29T05:27:35.861Z,12.40
2023-04-29T05:30:07.984Z,12.40
2023-04-29T05:32:34.985Z,12.40
2023-04-29T05:35:02.258Z,12.40
2023-04-29T05:37:33.343Z,12.40
2023-04-29T05:40:06.614Z,12.40
2023-04-29T05:42:34.365Z,12.40
2023-04-29T05:45:02.007Z,12.50
2023-04-29T05:47:28.951Z,12.50
2023-04-29T05:49:55.784Z,12.50
2023-04-29T05:52:28.794Z,12.50
2023-04-29T05:54:57.932Z,12.50
2023-04-29T05:57:25.025Z,12.50
2023-04-29T05:59:56.097Z,12.50
2023-04-29T06:02:29.198Z,12.60
2023-04-29T06:04:58.674Z,12.60
2023-04-29T06:07:39.721Z,12.50
2023-04-29T06:10:34.341Z,12.60
2023-04-29T06:13:01.347Z,12.60
2023-04-29T06:15:28.459Z,12.60
2023-04-29T06:17:56.513Z,12.60
2023-04-29T06:20:23.828Z,12.60
2023-04-29T06:22:55.446Z,12.60
2023-04-29T06:25:27.443Z,12.60
2023-04-29T06:27:54.967Z,12.60
2023-04-29T06:30:25.094Z,12.60
2023-04-29T06:32:52.133Z,12.70
2023-04-29T06:35:22.093Z,12.70
2023-04-29T06:38:10.921Z,12.70
2023-04-29T06:41:15.496Z,12.70
2023-04-29T06:44:12.222Z,12.80
2023-04-29T06:47:08.439Z,12.80
2023-04-29T06:49:49.391Z,12.80
2023-04-29T06:52:18.955Z,12.80
2023-04-29T06:54:48.866Z,12.80
2023-04-29T06:57:19.007Z,12.80
2023-04-29T06:59:49.389Z,12.80
2023-04-29T07:02:18.519Z,12.80
2023-04-29T07:04:49.591Z,12.90
2023-04-29T07:07:21.324Z,12.90
2023-04-29T07:09:52.140Z,13.00
2023-04-29T07:12:21.859Z,12.90
2023-04-29T07:14:49.075Z,12.90
2023-04-29T07:17:17.317Z,12.90
2023-04-29T07:19:45.619Z,12.80
2023-04-29T07:22:13.655Z,12.80
2023-04-29T07:24:41.534Z,12.70
2023-04-29T07:27:08.558Z,12.70
2023-04-29T07:29:37.027Z,12.70
2023-04-29T07:32:08.062Z,12.70
2023-04-29T07:34:36.884Z,12.70
2023-04-29T07:37:04.028Z,12.70
2023-04-29T07:39:33.060Z,12.70
2023-04-29T07:42:00.324Z,12.70
2023-04-29T07:44:29.997Z,12.70
2023-04-29T07:46:59.894Z,12.70
2023-04-29T07:49:35.519Z,12.70
2023-04-29T07:52:02.387Z,12.70
2023-04-29T07:54:29.204Z,12.70
2023-04-29T07:57:01.393Z,12.70
2023-04-29T07:59:28.360Z,12.70
2023-04-29T08:01:55.789Z,12.70
2023-04-29T08:04:28.602Z,12.70
2023-04-29T08:07:00.690Z,12.60
2023-04-29T08:09:30.161Z,12.60
2023-04-29T08:11:57.333Z,12.60
2023-04-29T08:14:26.820Z,12.60
2023-04-29T08:16:57.132Z,12.60
2023-04-29T08:19:24.067Z,12.60
2023-04-29T08:21:53.522Z,12.60
2023-04-29T08:24:21.215Z,12.60
2023-04-29T08:26:53.334Z,12.60
2023-04-29T08:29:20.563Z,12.50
2023-04-29T08:31:47.568Z,12.60
2023-04-29T08:34:17.989Z,12.60
2023-04-29T08:36:47.131Z,12.60
2023-04-29T08:39:13.990Z,12.60
2023-04-29T08:41:40.937Z,12.50
2023-04-29T08:44:07.946Z,12.50
2023-04-29T08:46:35.070Z,12.50
2023-04-29T08:49:04.050Z,12.50
2023-04-29T08:51:34.653Z,12.50
2023-04-29T08:54:03.899Z,12.50
2023-04-29T08:56:31.533Z,12.50
2023-04-29T08:59:01.135Z,12.50
2023-04-29T09:01:29.536Z,12.50
2023-04-29T09:04:30.337Z,12.50
2023-04-29T09:06:58.315Z,12.40
2023-04-29T09:09:26.076Z,12.40
2023-04-29T09:11:53.401Z,12.40
2023-04-29T09:14:21.474Z,12.50
2023-04-29T09:16:48.652Z,12.40
2023-04-29T09:19:36.483Z,12.40
2023-04-29T09:22:04.717Z,12.40
2023-04-29T09:24:34.634Z,12.40
2023-04-29T09:27:03.339Z,12.40
2023-04-29T09:29:32.809Z,12.40
2023-04-29T09:32:18.375Z,12.40
2023-04-29T09:34:47.808Z,12.40
2023-04-29T09:37:35.092Z,12.40
2023-04-29T09:40:02.269Z,12.40
2023-04-29T09:42:29.697Z,12.40
2023-04-29T09:44:58.727Z,12.30
2023-04-29T09:47:31.422Z,12.30
2023-04-29T09:50:12.801Z,12.30
2023-04-29T09:52:42.914Z,12.30
2023-04-29T09:55:15.302Z,12.30
2023-04-29T09:57:45.687Z,12.30
2023-04-29T10:00:14.964Z,12.30
2023-04-29T10:02:43.308Z,12.30
2023-04-29T10:05:14.109Z,12.30
2023-04-29T10:07:42.118Z,12.30
2023-04-29T10:10:11.408Z,12.30
2023-04-29T10:12:39.963Z,12.30
2023-04-29T10:15:43.044Z,12.30
2023-04-29T10:18:26.447Z,12.30
2023-04-29T10:20:56.750Z,12.30
2023-04-29T10:23:25.089Z,12.30
2023-04-29T10:25:55.828Z,12.40
2023-04-29T10:28:24.522Z,12.40
2023-04-29T10:30:52.391Z,12.40
2023-04-29T10:33:19.728Z,12.40
2023-04-29T10:35:49.338Z,12.50
2023-04-29T10:38:26.388Z,12.50
2023-04-29T10:40:55.958Z,12.50
2023-04-29T10:43:24.736Z,12.50
2023-04-29T10:46:18.866Z,12.40
2023-04-29T10:48:52.654Z,12.40
2023-04-29T10:51:33.197Z,12.40
2023-04-29T10:54:03.978Z,12.40
2023-04-29T10:56:38.052Z,12.40
2023-04-29T10:59:08.388Z,12.40
2023-04-29T11:01:49.743Z,12.40
2023-04-29T11:04:18.259Z,12.40
2023-04-29T11:06:56.510Z,12.50
2023-04-29T11:09:30.495Z,12.60
2023-04-29T11:12:03.858Z,12.60
2023-04-29T11:14:38.036Z,12.60
2023-04-29T11:17:18.928Z,12.70
2023-04-29T11:19:53.629Z,12.80
2023-04-29T11:22:24.112Z,13.00
2023-04-29T11:24:57.490Z,13.10
2023-04-29T11:27:28.561Z,13.10
2023-04-29T11:29:59.156Z,13.20
2023-04-29T11:32:34.345Z,13.30
2023-04-29T11:35:12.809Z,13.50
2023-04-29T11:37:41.111Z,13.60
2023-04-29T11:40:08.941Z,13.70
2023-04-29T11:42:40.665Z,13.80
2023-04-29T11:45:10.641Z,13.80
2023-04-29T11:47:42.910Z,13.90
2023-04-29T11:50:10.467Z,13.90
2023-04-29T11:52:39.287Z,13.80
2023-04-29T11:55:12.475Z,13.70
2023-04-29T11:57:40.540Z,13.60
2023-04-29T12:00:14.192Z,13.60
2023-04-29T12:02:46.382Z,13.70
2023-04-29T12:05:17.145Z,13.80
2023-04-29T12:07:46.884Z,13.90
2023-04-29T12:10:13.985Z,13.90
2023-04-29T12:12:45.576Z,13.90
2023-04-29T12:15:15.454Z,13.80
2023-04-29T12:17:50.270Z,13.80
2023-04-29T12:20:17.911Z,13.80
2023-04-29T12:23:03.138Z,13.80
2023-04-29T12:25:42.897Z,13.80
2023-04-29T12:28:13.858Z,13.70
2023-04-29T12:30:41.158Z,13.60
2023-04-29T12:33:11.111Z,13.50
2023-04-29T12:35:38.679Z,13.50
2023-04-29T12:38:08.655Z,13.60
2023-04-29T12:40:35.598Z,13.60
2023-04-29T12:43:11.189Z,13.70
2023-04-29T12:45:39.448Z,13.80
2023-04-29T12:48:10.034Z,13.90
2023-04-29T12:50:42.105Z,13.90
2023-04-29T12:53:11.773Z,14.00
2023-04-29T12:55:38.847Z,14.20
2023-04-29T12:58:10.409Z,14.50
2023-04-29T13:00:37.979Z,14.70
2023-04-29T13:03:09.652Z,14.80
2023-04-29T13:05:36.917Z,14.80
2023-04-29T13:08:06.583Z,14.80
2023-04-29T13:10:33.944Z,14.80
2023-04-29T13:13:05.526Z,14.90
2023-04-29T13:15:33.124Z,15.00
2023-04-29T13:18:00.071Z,15.10
2023-04-29T13:20:27.368Z,15.20
2023-04-29T13:22:54.325Z,15.30
2023-04-29T13:25:21.280Z,15.30
2023-04-29T13:27:48.410Z,15.20
2023-04-29T13:30:18.062Z,15.20
2023-04-29T13:32:49.421Z,15.20
2023-04-29T13:35:20.500Z,15.20
2023-04-29T13:37:48.274Z,15.10
2023-04-29T13:40:20.507Z,15.10
2023-04-29T13:43:02.194Z,15.10
2023-04-29T13:45:38.943Z,15.20
2023-04-29T13:48:20.920Z,15.30
2023-04-29T13:58:43.747Z,16.10
2023-04-29T14:01:55.298Z,16.00
2023-04-29T14:04:05.829Z,15.90
2023-04-29T14:06:34.834Z,15.80
2023-04-29T14:09:06.206Z,15.60
2023-04-29T14:11:36.624Z,15.50
2023-04-29T14:14:04.073Z,15.30
2023-04-29T14:16:30.992Z,15.10
2023-04-29T14:19:02.885Z,15.00
2023-04-29T14:21:31.914Z,14.90
2023-04-29T14:24:04.677Z,14.90
2023-04-29T14:26:32.073Z,14.90
2023-04-29T14:28:59.978Z,14.90
2023-04-29T14:31:38.046Z,14.90
2023-04-29T14:34:10.504Z,14.90
2023-04-29T14:36:39.738Z,14.90
2023-04-29T14:39:09.152Z,15.00
2023-04-29T14:41:38.128Z,15.90
2023-04-29T14:44:05.069Z,17.30
2023-04-29T14:46:32.557Z,19.10
2023-04-29T14:49:04.428Z,21.20
2023-04-29T14:51:31.701Z,22.20
2023-04-29T14:53:58.514Z,23.50
2023-04-29T14:56:27.802Z,22.60
2023-04-29T14:58:54.822Z,22.30
2023-04-29T15:01:24.661Z,21.80
2023-04-29T15:03:54.645Z,20.80
2023-04-29T15:06:21.701Z,19.70
2023-04-29T15:08:48.541Z,18.90
2023-04-29T15:11:17.650Z,18.30
2023-04-29T15:13:44.547Z,17.70
2023-04-29T15:16:11.876Z,17.40
2023-04-29T15:18:38.807Z,17.10
2023-04-29T15:21:05.760Z,16.80
2023-04-29T15:23:34.910Z,16.50
2023-04-29T15:26:01.858Z,16.30
2023-04-29T15:28:28.736Z,16.10
2023-04-29T15:30:55.626Z,15.90
2023-04-29T15:33:24.647Z,15.70
2023-04-29T15:35:56.766Z,15.60
2023-04-29T15:38:23.663Z,15.50
2023-04-29T15:40:58.928Z,15.40
2023-04-29T15:43:26.470Z,15.30
2023-04-29T15:45:56.705Z,15.20
2023-04-29T15:48:26.256Z,15.10
2023-04-29T15:50:53.690Z,15.10
2023-04-29T15:53:20.873Z,15.10
2023-04-29T15:55:50.102Z,15.00
2023-04-29T15:58:17.022Z,15.00
2023-04-29T16:00:46.742Z,15.00
2023-04-29T16:03:15.883Z,15.00
2023-04-29T16:05:47.857Z,15.00
2023-04-29T16:08:14.698Z,15.00
2023-04-29T16:10:41.594Z,14.90
2023-04-29T16:13:08.496Z,14.90
2023-04-29T16:15:35.424Z,14.80
2023-04-29T16:18:04.974Z,14.80
2023-04-29T16:20:34.072Z,14.70
2023-04-29T16:23:00.923Z,14.70
2023-04-29T16:25:27.843Z,14.70
2023-04-29T16:27:54.904Z,14.70
2023-04-29T16:30:21.983Z,14.70
2023-04-29T16:32:48.908Z,14.70
2023-04-29T16:35:16.570Z,14.70
2023-04-29T16:37:43.476Z,14.60
2023-04-29T16:40:15.769Z,14.60
2023-04-29T16:42:42.682Z,14.70
2023-04-29T16:45:10.358Z,14.70
2023-04-29T16:47:37.802Z,14.80
2023-04-29T16:50:08.159Z,14.90
2023-04-29T16:52:39.392Z,14.90
2023-04-29T16:55:08.619Z,15.00
2023-04-29T16:57:37.756Z,15.00
2023-04-29T17:00:10.202Z,15.00
2023-04-29T17:02:40.308Z,15.00
2023-04-29T17:05:08.966Z,14.90
2023-04-29T17:07:36.106Z,14.90
2023-04-29T17:10:03.716Z,14.90
2023-04-29T17:12:30.727Z,14.80
2023-04-29T17:14:57.627Z,14.70
2023-04-29T17:17:24.658Z,14.70
2023-04-29T17:19:55.563Z,14.60
2023-04-29T17:22:25.423Z,14.50
2023-04-29T17:24:56.897Z,14.50
2023-04-29T17:27:24.055Z,14.50
2023-04-29T17:29:55.382Z,14.50
2023-04-29T17:32:28.673Z,14.50
2023-04-29T17:34:59.618Z,14.40
2023-04-29T17:37:27.000Z,14.40
2023-04-29T17:39:54.306Z,14.40
2023-04-29T17:42:21.492Z,14.40
2023-04-29T17:44:48.457Z,14.30
2023-04-29T17:47:17.390Z,14.30
2023-04-29T17:49:44.763Z,14.30
2023-04-29T17:52:12.573Z,14.20
2023-04-29T17:54:40.478Z,14.10
2023-04-29T17:57:08.069Z,14.10
2023-04-29T17:59:37.600Z,14.10
2023-04-29T18:02:04.780Z,14.00
2023-04-29T18:04:33.829Z,14.00
2023-04-29T18:07:01.796Z,14.00
2023-04-29T18:09:28.864Z,13.90
2023-04-29T18:11:55.826Z,13.90
2023-04-29T18:14:23.002Z,13.90
2023-04-29T18:16:52.510Z,13.80
2023-04-29T18:19:19.515Z,13.80
2023-04-29T18:21:48.524Z,13.80
2023-04-29T18:24:16.057Z,13.70
2023-04-29T18:26:43.059Z,13.70
2023-04-29T18:29:12.258Z,13.70
2023-04-29T18:31:39.335Z,13.70
2023-04-29T18:34:06.506Z,13.60
2023-04-29T18:36:33.863Z,13.60
2023-04-29T18:39:00.801Z,13.60
2023-04-29T18:41:27.706Z,13.60
2023-04-29T18:43:54.841Z,13.60
2023-04-29T18:46:22.053Z,13.50
2023-04-29T18:48:49.027Z,13.50
2023-04-29T18:51:16.363Z,13.50
2023-04-29T18:53:43.479Z,13.50
2023-04-29T18:56:10.496Z,13.40
2023-04-29T18:58:41.863Z,13.40
2023-04-29T19:01:11.044Z,13.40
2023-04-29T19:03:38.136Z,13.40
2023-04-29T19:06:05.222Z,13.30
2023-04-29T19:08:32.083Z,13.30
2023-04-29T19:11:00.675Z,13.30
2023-04-29T19:13:27.898Z,13.30
2023-04-29T19:15:59.657Z,13.30
2023-04-29T19:18:26.913Z,13.30
2023-04-29T19:20:55.118Z,13.30
2023-04-29T19:23:22.394Z,13.20
2023-04-29T19:25:49.383Z,13.20
2023-04-29T19:28:16.335Z,13.20
2023-04-29T19:30:45.545Z,13.20
2023-04-29T19:33:14.986Z,13.20
2023-04-29T19:35:44.701Z,13.20
2023-04-29T19:38:11.754Z,13.10
2023-04-29T19:40:38.724Z,13.10
2023-04-29T19:43:05.658Z,13.00
2023-04-29T19:45:32.567Z,13.00
2023-04-29T19:48:02.088Z,13.00
2023-04-29T19:50:29.805Z,12.90
2023-04-29T19:53:01.555Z,12.90
2023-04-29T19:55:28.528Z,12.90
2023-04-29T19:57:55.543Z,12.80
2023-04-29T20:00:24.669Z,12.80
2023-04-29T20:02:53.896Z,12.70
2023-04-29T20:05:23.502Z,12.70
2023-04-29T20:07:50.473Z,12.70
2023-04-29T20:10:22.264Z,12.70
2023-04-29T20:12:51.274Z,12.70
2023-04-29T20:15:20.022Z,12.70
2023-04-29T20:17:49.849Z,12.70
2023-04-29T20:20:18.822Z,12.70
2023-04-29T20:22:50.449Z,12.70
2023-04-29T20:25:17.609Z,12.70
2023-04-29T20:27:46.766Z,12.70
2023-04-29T20:30:16.112Z,12.60
2023-04-29T20:32:43.421Z,12.60
2023-04-29T20:35:10.322Z,12.60
2023-04-29T20:37:42.044Z,12.50
2023-04-29T20:40:09.884Z,12.50
2023-04-29T20:42:38.997Z,12.50
2023-04-29T20:45:07.314Z,12.50
2023-04-29T20:47:35.510Z,12.50
2023-04-29T20:50:04.846Z,12.40
2023-04-29T20:52:31.766Z,12.50
2023-04-29T20:54:58.796Z,12.40
2023-04-29T20:57:25.832Z,12.40
2023-04-29T20:59:52.924Z,12.40
2023-04-29T21:02:20.482Z,12.40
2023-04-29T21:04:47.539Z,12.30
2023-04-29T21:07:14.557Z,12.30
2023-04-29T21:09:41.638Z,12.30
2023-04-29T21:12:08.755Z,12.20
2023-04-29T21:14:37.274Z,12.20
2023-04-29T21:17:06.450Z,12.20
2023-04-29T21:19:39.594Z,12.20
2023-04-29T21:22:06.753Z,12.20
2023-04-29T21:24:33.641Z,12.10
2023-04-29T21:27:00.570Z,12.10
2023-04-29T21:29:34.546Z,12.10
2023-04-29T21:32:01.433Z,12.10
2023-04-29T21:34:28.297Z,12.00
2023-04-29T21:36:55.212Z,12.00
2023-04-29T21:39:22.183Z,12.00
2023-04-29T21:41:49.468Z,11.90
2023-04-29T21:44:16.686Z,11.90
2023-04-29T21:46:44.399Z,11.90
2023-04-29T21:49:11.592Z,11.90
2023-04-29T21:51:38.468Z,11.90
2023-04-29T21:54:08.358Z,11.90
2023-04-29T21:56:35.783Z,11.90
2023-04-29T21:59:05.024Z,11.90
2023-04-29T22:01:47.520Z,11.90
2023-04-29T22:04:18.881Z,11.90
2023-04-29T22:06:47.895Z,11.90
2023-04-29T22:09:17.243Z,11.90
2023-04-29T22:11:46.574Z,11.90
2023-04-29T22:14:13.494Z,11.90
2023-04-29T22:16:42.657Z,11.90
2023-04-29T22:19:14.820Z,11.80
2023-04-29T22:21:43.008Z,11.80
2023-04-29T22:24:10.170Z,11.70
2023-04-29T22:26:37.136Z,11.70
2023-04-29T22:29:47.752Z,11.60
2023-04-29T22:32:14.697Z,11.60
2023-04-29T22:34:41.582Z,11.60
2023-04-29T22:37:08.612Z,11.50
2023-04-29T22:39:37.930Z,11.50
2023-04-29T22:42:04.931Z,11.50
2023-04-29T22:44:31.823Z,11.50
2023-04-29T22:47:01.143Z,11.50
2023-04-29T22:49:28.048Z,11.40
2023-04-29T22:51:57.211Z,11.40
2023-04-29T22:54:26.187Z,11.30
2023-04-29T22:56:52.963Z,11.30
2023-04-29T22:59:19.837Z,11.30
2023-04-29T23:01:48.992Z,11.20
2023-04-29T23:04:15.899Z,11.20
2023-04-29T23:06:43.039Z,11.20
2023-04-29T23:09:10.307Z,11.10
2023-04-29T23:11:37.157Z,11.10
2023-04-29T23:14:08.554Z,11.10
2023-04-29T23:16:35.471Z,11.00
2023-04-29T23:19:04.433Z,11.00
2023-04-29T23:21:32.418Z,11.00
2023-04-29T23:23:59.324Z,10.90
2023-04-29T23:26:33.234Z,10.90
2023-04-29T23:29:00.531Z,10.90
2023-04-29T23:31:27.360Z,10.90
2023-04-29T23:33:54.264Z,10.90
2023-04-29T23:36:23.543Z,10.80
2023-04-29T23:38:50.460Z,10.80
2023-04-29T23:41:17.295Z,10.70
2023-04-29T23:43:44.143Z,10.70
2023-04-29T23:46:11.025Z,10.70
2023-04-29T23:48:37.961Z,10.70
2023-04-29T23:51:04.860Z,10.70
2023-04-29T23:53:31.757Z,10.70
2023-04-29T23:55:58.981Z,10.60
2023-04-29T23:58:25.930Z,10.60
